Las horas y fechas están en horario UTC
Sumar 1 hora en el horario de Invierno y 2 horas en el de Verano

Informes METAR cercanos

 

LEZL - Sevilla (civ/Mil, Spain
Distance from station: NNE 24km
Actualización: 20/11/2018 08:00
Light drizzle, Mist, Muy nuboso
Light drizzle, Mist, Muy nuboso
 Viento del OSO
Viento: OSO 7 km/h
Temperatura: 14°C
Rocío: 14°C
Humedad: 100%
Barómetro: 1002 hPa
Resumen: Light drizzle, Mist
Clouds: Muy nuboso
Visibility: 5 km
Cloud details: Muy nuboso 152 m
Muy nuboso 274 m
2018/11/20 07:00 LEZL 200700Z 25004KT 220V290 5000 -DZ BR BKN005 BKN009 14/14 Q1002 NOSIG
LEMO - Moron (sp-Usafb), Spain
Distance from station: E 38km
Actualización: 20/11/2018 08:00
Muy nuboso
Muy nuboso
 Viento del S
Viento: S 24 km/h
Temperatura: 13°C
Rocío: 12°C
Humedad: 94%
Barómetro: 1002 hPa
Clouds: Muy nuboso
Visibility: 10 km
Cloud details: Few Clouds 274 m
Parcialmente nuboso 305 m
Muy nuboso 366 m
2018/11/20 07:00 LEMO 200700Z 18013KT 9999 FEW009 SCT010 BKN012 13/12 Q1002 NOSIG
LEJR - Jerez (civ/Mil), Spain
Distance from station: S 53km
Actualización: 20/11/2018 08:00
Muy nuboso
Muy nuboso
 Viento del SSO
Viento: SSO 11 km/h
Temperatura: 14°C
Rocío: 13°C
Humedad: 94%
Barómetro: 1003 hPa
Clouds: Muy nuboso
Visibility: 10 km
Cloud details: Few Clouds 671 m
Parcialmente nuboso 975 m
Muy nuboso 1250 m
2018/11/20 07:00 LEJR 200700Z 20006KT 9999 FEW022 SCT032 BKN041 14/13 Q1003
 
LERT - Rota Naval Stati, Spain
Distance from station: SSO 71km
Actualización: 20/11/2018 08:00
Parcialmente nuboso
Parcialmente nuboso
 Viento del O
Viento: O 26 km/h
Temperatura: 16°C
Rocío: 13°C
Humedad: 83%
Barómetro: 1003 hPa
Clouds: Parcialmente nuboso
Visibility: 10 km
Cloud details: Few Clouds 579 m
Parcialmente nuboso 1219 m
2018/11/20 07:00 LERT 200700Z 28014KT 260V320 9999 FEW019 SCT040 16/13 Q1003 NOSIG
LEBA - Cordoba Airport, Spain
Distance from station: ENE 128km
Actualización: 20/11/2018 08:00
Precipitación, Mist, Muy nuboso
Precipitación, Mist, Muy nuboso
 Viento del E
Viento: E 2 km/h
Temperatura: 11°C
Rocío: 11°C
Humedad: 100%
Barómetro: 1003 hPa
Resumen: Precipitación, Mist
Clouds: Muy nuboso
Visibility: 4 km
Cloud details: Few Clouds 396 m
Muy nuboso 610 m
Muy nuboso 1128 m
2018/11/20 07:00 LEBA 200700Z 08001KT 4000 RA BR FEW013 BKN020 BKN037 11/11 Q1003
LXGB - Gibraltar (civ/M, Gibraltar
Distance from station: SSE 137km
Actualización: 20/11/2018 07:50
Nearby showers, Muy nuboso
Nearby showers, Muy nuboso
 Viento del SO
Viento: SO 31 km/h, Racha: 63 km/h
Temperatura: 16°C
Rocío: 12°C
Humedad: 77%
Barómetro: 1004 hPa
Resumen: Nearby Showers
Clouds: Muy nuboso
Visibility: 10 km
Cloud details: Parcialmente nuboso 549 m
Muy nuboso 671 m
Muy nuboso 1372 m
2018/11/20 06:50 LXGB 200650Z 22017G34KT 9999 VCSH SCT018 BKN022 BKN045 16/12 Q1004 BECMG 26012KT FEW018
 
LEMG - Malaga (civ/Mil), Spain
Distance from station: ESE 150km
Actualización: 20/11/2018 08:00
Lluvia débil, Muy nuboso
Lluvia débil, Muy nuboso
 Viento del SSE
Viento: SSE 9 km/h
Temperatura: 14°C
Rocío: 12°C
Humedad: 88%
Barómetro: 1005 hPa
Resumen: Lluvia débil
Clouds: Muy nuboso
Visibility: 10 km
Cloud details: Few Clouds 427 m
Parcialmente nuboso 1219 m
Muy nuboso 1981 m
2018/11/20 07:00 LEMG 200700Z 15005KT 120V190 9999 -RA FEW014 SCT040CB BKN065 14/12 Q1005 NOSIG
GMTT - Tangier/Boukhalf, Morocco
Distance from station: S 169km
Actualización: 20/11/2018 08:00
Muy nuboso
Muy nuboso
 Viento del SSO
Viento: SSO 22 km/h
Temperatura: 13°C
Rocío: 12°C
Humedad: 94%
Barómetro: 1006 hPa
Clouds: Muy nuboso
Visibility: 6 km
Cloud details: Few Clouds 396 m
Muy nuboso 610 m
2018/11/20 07:00 GMTT 200700Z 21012KT 180V270 6000 FEW013 BKN020 13/12 Q1006 NOSIG
LPFR - Faro, Portugal
Distance from station: O 172km
Actualización: 20/11/2018 08:00
Few Clouds
Few Clouds
 Viento del O
Viento: O 13 km/h
Temperatura: 13°C
Rocío: 11°C
Humedad: 88%
Barómetro: 1005 hPa
Clouds: Few Clouds
Visibility: 10 km
Cloud details: Few Clouds 488 m
2018/11/20 07:00 LPFR 200700Z 28007KT 9999 FEW016 13/11 Q1005
 
LPBJ - Beja (por/Ger-Af, Portugal
Distance from station: ONO 192km
Actualización: 20/11/2018 08:00
Muy nuboso
Muy nuboso
 Viento del ONO
Viento: ONO 11 km/h
Temperatura: 11°C
Rocío: 11°C
Humedad: 100%
Barómetro: 1005 hPa
Clouds: Muy nuboso
Visibility: 10 km
Cloud details: Parcialmente nuboso 122 m
Muy nuboso 366 m
2018/11/20 07:00 LPBJ 200700Z 29006KT 9999 SCT004 BKN012 11/11 Q1005
LEBZ - Talavera Ab/Bada, Spain
Distance from station: NNO 194km
Actualización: 20/11/2018 08:00
Cubierto
Cubierto
 Viento del ONO
Viento: ONO 7 km/h
Temperatura: 10°C
Wind Chill: 9°C
Rocío: 10°C
Humedad: 100%
Barómetro: 1003 hPa
Clouds: Cubierto
Visibility: 9 km
Cloud details: Cubierto 305 m
2018/11/20 07:00 LEBZ 200700Z 29004KT 250V330 9000 OVC010 10/10 Q1003
LEMD - Madrid/Barajas, Spain
Distance from station: NE 415km
Actualización: 20/11/2018 08:00
Muy nuboso
Muy nuboso
 Viento del S
Viento: S 15 km/h
Temperatura: 10°C
Wind Chill: 8°C
Rocío: 9°C
Humedad: 94%
Barómetro: 1000 hPa
Clouds: Muy nuboso
Visibility: 10 km
Cloud details: Few Clouds 457 m
Parcialmente nuboso 853 m
Muy nuboso 2134 m
2018/11/20 07:00 LEMD 200700Z 19008KT 150V220 9999 FEW015 SCT028 BKN070 10/09 Q1000 R88/29//95 NOSIG